logo
App data

Starscape

Moonpod's Starscape mixes old school arcade game play values with characterization and an involving plot to deepen the whole experience. With most of its crew missing and its weapons systems ruined, the space research station Aegis is all but lost.
Store | Hub | SteamDB | Site
Developer: Moonpod Publisher: Moonpod
Genre: Action, Indie, Strategy
Languages: English
Tags: Action (26), Indie (23), Strategy (21), Space (6), Top-Down (5)
Category: Single-player, Steam Achievements
Release date: Mar 27, 2003
Price: $7.99
Score rank: 49% Userscore: 79% Old userscore: 77%
Owners: 0 .. 20,000
Peak concurrent players yesterday: 2
Playtime total: 05:24 (average) 10:11 (median)

Steam Spy is still in beta, so expect major bugs.

Owners data:

Access restricted.

This feature is only available to users with special access rights. Sorry.

If you want to proceed, you need to register or log in first and then back Steam Spy on Patreon. Look for Indie or Pro pledge.

Don't forget to use the same email as on Steam Spy!

Audience in 2 weeks:

Access restricted.

This feature is only available to users with special access rights. Sorry.

If you want to proceed, you need to register or log in first and then back Steam Spy on Patreon. Look for Indie or Pro pledge.

Don't forget to use the same email as on Steam Spy!

Peak daily concurrent players:

CCU data courtesy of SteamDB. Used with permission.

Hourly concurrent players:

Daily Twitch stats:

Hourly Twitch stats:

YouTube:

The views data is based on top 50 videos uploaded last week. Actual number of views might be more than the number shown.

The displayed number of videos uploaded yesterday is limited to 50, so if there were more videos uploaded, the number will still show 50.

If the game has commonly used word as its name (like "FEAR" or "Volume") its number of Youtube views might be wrong.

Games similar to this one:

# Game Release date
Price
Score rank
(Userscore / Metascore)
Owners
Players
Playtime (Median)
1 Little Big Adventure 2 Oct 20, 2015 $3.9999% (98%)20,000 .. 50,0000%00:00 (00:00)
2 Seven Kingdoms: Ancient Adversaries Jun 8, 1998 $2.3997% (97%)0 .. 20,0000%00:00 (00:00)
3 Dungeon Warfare Nov 4, 2015 $9.9997% (97%)50,000 .. 100,0000%00:00 (00:00)
4 Defend The Highlands Nov 6, 2015 $9.9995% (96%)100,000 .. 200,0000%00:00 (00:00)
5 Chicken Invaders 2 Mar 4, 2016 $3.9995% (96%)0 .. 20,0000%00:00 (00:00)
6 Voodoo Vince: Remastered Apr 18, 2017 $14.9995% (96%/63%)0 .. 20,0000%00:00 (00:00)
7 Imperium Galactica Mar 1, 1997 $4.99N/A (N/A)0 .. 20,0000%00:00 (00:00)
8 Militia Dec 2, 2015 $5.9995% (96%)0 .. 20,0000%00:00 (00:00)
9 Supercharged Robot VULKAISER Jun 4, 2015 $4.9992% (95%)20,000 .. 50,0000%00:00 (00:00)
10 Hegemony Gold: Wars of Ancient Greece Mar 30, 2012 $14.9992% (95%)20,000 .. 50,0000%00:00 (00:00)
11 Flywrench Aug 24, 2015 $6.9992% (95%)0 .. 20,0000%00:00 (00:00)
12 Outcast 1.1 Dec 18, 2014 $5.9990% (94%)50,000 .. 100,0000%00:00 (00:00)
13 Adventure in the Tower of Flight Dec 23, 2015 $4.9990% (94%)0 .. 20,0000%00:00 (00:00)
14 ESCHATOS Sep 18, 2015 $14.9990% (94%)0 .. 20,0000%00:00 (00:00)
15 Neon Chrome Apr 28, 2016 $14.9990% (94%/74%)200,000 .. 500,0000%00:00 (00:00)
16 Majesty Gold HD Sep 4, 2009 $9.9990% (94%)100,000 .. 200,0000%00:00 (00:00)
17 Gold Rush! Classic Jul 25, 2014 $2.9990% (94%)200,000 .. 500,0000.3%04:31 (03:00)
18 Stick it to The Man! Dec 13, 2013 $7.9990% (94%/83%)20,000 .. 50,0000%00:00 (00:00)
19 Star Trek: Judgment Rites May 8, 2015 $9.99N/A (N/A)0 .. 20,0000%00:00 (00:00)
20 Templar Battleforce Sep 21, 2015 $9.9990% (94%)20,000 .. 50,0000%00:00 (00:00)
21 Audio Arena Jul 25, 2016 $6.99N/A (N/A)0 .. 20,0000%00:00 (00:00)
22 PixelJunk Shooter Nov 11, 2013 $8.9990% (94%/73%)100,000 .. 200,0000.34%00:25 (00:08)
23 Eufloria HD Oct 14, 2014 $14.9987% (93%)100,000 .. 200,0000%00:00 (00:00)
24 Major Mayhem Feb 24, 2014 $4.99N/A (N/A)20,000 .. 50,0000%00:00 (00:00)
25 Kick Ass Commandos Nov 17, 2016 $9.9987% (93%)20,000 .. 50,0002%01:05 (00:21)
26 Kalimba Apr 22, 2015 $9.9987% (93%/81%)0 .. 20,0000%00:00 (00:00)
27 Wars and Warriors: Joan of Arc Sep 3, 2015 $1.7487% (93%/60%)0 .. 20,0000%00:00 (00:00)
28 Handsome Mr. Frog Aug 8, 2016 $0.9987% (93%)0 .. 20,0000%00:00 (00:00)
29 Run or Die Dec 11, 2014 $4.9987% (93%)0 .. 20,0002.22%00:21 (00:07)
30 Pharaoh Rebirth+ Mar 17, 2016 $9.9987% (93%)0 .. 20,0000%00:00 (00:00)
31 Anarcute Jul 12, 2016 $14.9987% (93%/79%)0 .. 20,0004%02:09 (00:43)
32 Warrior Kings: Battles May 6, 2014 $9.9983% (92%/64%)0 .. 20,0000%00:00 (00:00)
33 The Juicer Sep 11, 2015 $0.9983% (92%)20,000 .. 50,0000%00:00 (00:00)
34 Tallowmere Mar 3, 2015 $3.9983% (92%)20,000 .. 50,0004.08%00:19 (00:09)
35 Counter Spell Oct 5, 2015 $9.9983% (92%)0 .. 20,0000%00:00 (00:00)
36 Super Trench Attack! Jul 24, 2014 $0.9983% (92%)50,000 .. 100,0001.04%01:48 (01:12)
37 Bleed Jul 3, 2013 $4.9983% (92%)100,000 .. 200,0000%00:00 (00:00)
38 Ys VI: The Ark of Napishtim Apr 28, 2015 $19.9983% (92%/76%)50,000 .. 100,0001.35%02:16 (00:45)
39 Shmups Skill Test シューティング技能検定 Jun 9, 2016 $4.99N/A (N/A)0 .. 20,0000%00:00 (00:00)
40 Ittle Dew Jul 23, 2013 $9.9983% (92%/67%)100,000 .. 200,0000%00:00 (00:00)
41 Miracle Fly Oct 26, 2015 $7.9983% (92%)20,000 .. 50,0000%00:00 (00:00)
42 Khet 2.0 Oct 1, 2014 $9.9983% (92%)50,000 .. 100,0000%00:00 (00:00)
43 Momodora III Jul 1, 2014 $1.9983% (92%)50,000 .. 100,0000%00:00 (00:00)
44 Knightmare Tower Jun 16, 2014 $3.9983% (92%)0 .. 20,0000%00:00 (00:00)
45 Mad Bullets Jun 10, 2016 $2.9983% (92%)0 .. 20,0000%00:00 (00:00)
46 Great Big War Game Aug 28, 2012 $6.99N/A (N/A)0 .. 20,0000%00:00 (00:00)
47 Death Ray Manta SE Sep 17, 2015 $1.9983% (92%)20,000 .. 50,0000%00:00 (00:00)
48 Dandy: Or a Brief Glimpse Into the Life of the Candy Alchemist Aug 4, 2015 $9.99N/A (N/A)0 .. 20,0000%00:00 (00:00)
49 Apocalypse: Party's Over May 30, 2016 N/A80% (91%)0 .. 20,0005%00:01 (00:00)
50 Codename: Panzers, Phase Two Jul 21, 2005 $14.9980% (91%/80%)0 .. 20,0000%00:00 (00:00)
51 Kohan II: Kings of War Aug 24, 2011 $9.9980% (91%/81%)20,000 .. 50,0000%00:00 (00:00)
52 Clash of Puppets Dec 16, 2014 $4.99N/A (N/A)0 .. 20,0000%00:00 (00:00)
53 Valley Aug 24, 2016 $19.9980% (91%)200,000 .. 500,00013.13%01:13 (00:39)
54 Below Kryll Sep 7, 2015 $0.9980% (91%)0 .. 20,0000%00:00 (00:00)
55 Blue Estate The Game Apr 8, 2015 $12.9980% (91%/59%)50,000 .. 100,0000%00:00 (00:00)
56 Flashpoint Campaigns: Red Storm Player's Edition Oct 9, 2013 $49.9980% (91%)0 .. 20,0000%00:00 (00:00)
57 Near Death Aug 2, 2016 $14.9980% (91%/70%)20,000 .. 50,0000%00:00 (00:00)
58 Angry Video Game Nerd II: ASSimilation Mar 29, 2016 $9.9980% (91%)20,000 .. 50,0004.55%01:15 (00:25)
59 Skulls of the Shogun Jul 29, 2013 $9.9980% (91%/72%)100,000 .. 200,0000%00:00 (00:00)
60 Super Cyborg Jul 8, 2015 $4.9980% (91%)20,000 .. 50,0000.88%00:02 (00:00)
61 Lethe - Episode One Aug 1, 2016 $14.9977% (90%)0 .. 20,0000%00:00 (00:00)
62 Superstatic Sep 15, 2015 $4.99N/A (N/A)0 .. 20,0000%00:00 (00:00)
63 Headlander Jul 25, 2016 $19.9977% (90%/74%)50,000 .. 100,0000%00:00 (00:00)
64 Zombo Buster Rising Oct 2, 2016 $1.9977% (90%)0 .. 20,0000%00:00 (00:00)
65 Sneaky Sneaky Nov 12, 2014 $4.9977% (90%/63%)0 .. 20,0000%00:00 (00:00)
66 Planet of the Eyes Aug 24, 2015 $9.9977% (90%/66%)50,000 .. 100,0000%00:00 (00:00)
67 Amaranthine Apr 6, 2016 $2.9977% (90%)0 .. 20,0000%00:00 (00:00)
68 Wild Guns Reloaded Jul 11, 2017 $14.9977% (90%)0 .. 20,0000%00:00 (00:00)
69 Warhammer 40,000: Dawn of War – Winter Assault Aug 7, 2007 $12.9977% (90%)500,000 .. 1,000,0000%00:00 (00:00)
70 Swords and Soldiers HD Dec 2, 2010 $9.9977% (90%)100,000 .. 200,0000.15%00:32 (00:32)
71 Ace of Seafood Apr 8, 2016 $11.9977% (90%)0 .. 20,0000%00:00 (00:00)
72 MoonBase Commander Feb 6, 2014 $5.9977% (90%/77%)0 .. 20,0000%00:00 (00:00)
73 Silent Storm Gold Edition Oct 2, 2013 $9.9977% (90%/83%)100,000 .. 200,0001.82%00:24 (00:15)
74 Battle Academy 2: Eastern Front Sep 12, 2014 $39.9977% (90%/78%)0 .. 20,0000%00:00 (00:00)
75 Reverse Crawl Sep 24, 2015 $5.9973% (89%)20,000 .. 50,0000%00:00 (00:00)
76 Battlepillars Gold Edition Apr 28, 2014 $4.9973% (89%)20,000 .. 50,0000%00:00 (00:00)
77 Armed with Wings: Rearmed Jun 1, 2017 $9.9973% (89%)20,000 .. 50,0001.39%00:02 (00:00)
78 Death's Hangover Jan 20, 2017 $4.9973% (89%)50,000 .. 100,0001.11%02:02 (00:40)
79 RIVE: Wreck, Hack, Die, Retry! Sep 13, 2016 $14.9973% (89%)200,000 .. 500,0000.44%05:34 (01:51)
80 Explosionade Sep 23, 2015 $3.99N/A (N/A)0 .. 20,0001.92%04:03 (01:21)
81 Earth Defense Force: Insect Armageddon Dec 14, 2011 $9.9973% (89%/69%)50,000 .. 100,0001.2%00:49 (00:16)
82 CastleStorm Jul 29, 2013 $9.9973% (89%/73%)100,000 .. 200,0000.48%03:01 (01:00)
83 Tcheco in the Castle of Lucio Jun 22, 2015 $0.9973% (89%)50,000 .. 100,0001.01%00:32 (00:21)
84 Kohan: Ahriman's Gift Aug 24, 2011 $9.99N/A (N/A/79%)0 .. 20,0000%00:00 (00:00)
85 Viking Squad Oct 4, 2016 $14.9971% (88%)0 .. 20,0000%00:00 (00:00)
86 Anodyne Mar 22, 2013 $9.9971% (88%/75%)100,000 .. 200,0000%00:00 (00:00)
87 Greed Corp Dec 10, 2010 $9.9971% (88%/76%)200,000 .. 500,0000%00:00 (00:00)
88 The Fall May 30, 2014 $9.9971% (88%/76%)200,000 .. 500,0000.26%01:13 (00:24)
89 Darknet Jun 8, 2017 $14.9971% (88%)0 .. 20,0000%00:00 (00:00)
90 Atom Zombie Smasher Mar 14, 2011 $9.9971% (88%/75%)200,000 .. 500,0000%00:00 (00:00)
91 Mr. Shifty Apr 13, 2017 $14.9971% (88%)50,000 .. 100,0000.73%02:16 (02:16)
92 Earn to Die 2 May 5, 2016 $4.9971% (88%)20,000 .. 50,0000%00:00 (00:00)
93 Fort Meow Jun 24, 2015 $7.9971% (88%)20,000 .. 50,0000%00:00 (00:00)
94 TRON 2.0 Oct 10, 2014 $9.9971% (88%/84%)20,000 .. 50,0002.94%00:52 (00:17)
95 Weird Hero Nov 18, 2016 $1.3971% (88%)0 .. 20,0000%00:00 (00:00)
96 Graviteam Tactics: Mius-Front Mar 4, 2016 $34.9968% (87%)0 .. 20,0000%00:00 (00:00)
97 Civilization IV: Warlords Apr 6, 2007 $4.9968% (87%/84%)1,000,000 .. 2,000,0000%00:00 (00:00)
98 Lethal VR Nov 8, 2016 $14.9968% (87%/66%)0 .. 20,0000%00:00 (00:00)
99 Rush for Berlin Gold Oct 29, 2009 $4.9968% (87%/76%)20,000 .. 50,0002.7%00:17 (00:05)
100 Time Rifters Oct 21, 2014 $9.9968% (87%)0 .. 20,0003.85%07:02 (02:20)
101 Sang-Froid - Tales of Werewolves Apr 5, 2013 Free68% (87%/79%)200,000 .. 500,0000.19%00:30 (00:10)
102 Spooky Cats Jun 4, 2015 $2.9968% (87%)20,000 .. 50,0000%00:00 (00:00)
103 Syrian Warfare Feb 21, 2017 $13.9968% (87%)100,000 .. 200,0002.94%00:30 (00:10)
104 The Haunted: Hells Reach Oct 24, 2011 $8.9968% (87%/51%)50,000 .. 100,0000%00:00 (00:00)
105 Shadow Blade: Reload Aug 10, 2015 $14.9968% (87%/70%)20,000 .. 50,0000%00:00 (00:00)
106 Blacksea Odyssey Jun 1, 2016 $9.9968% (87%/74%)20,000 .. 50,0000%00:00 (00:00)
107 Avoid - Sensory Overload Apr 8, 2014 $4.9968% (87%)20,000 .. 50,0003.33%03:40 (01:13)
108 Spider: Rite of the Shrouded Moon Aug 6, 2015 $9.99N/A (N/A)20,000 .. 50,0000%00:00 (00:00)
109 Spectromancer Feb 11, 2009 $9.9968% (87%)20,000 .. 50,0000%00:00 (00:00)
110 Command: Northern Inferno Oct 22, 2015 $19.99N/A (N/A)0 .. 20,0000%00:00 (00:00)
111 Steel Rain Dec 3, 2015 $9.9965% (86%)0 .. 20,0000%00:00 (00:00)
112 Super Chibi Knight Jun 24, 2015 $4.9965% (86%)20,000 .. 50,0000%00:00 (00:00)
113 Dustoff Heli Rescue Mar 6, 2015 $3.9965% (86%)20,000 .. 50,0000%00:00 (00:00)
114 Meltdown Jun 5, 2014 $6.9965% (86%)50,000 .. 100,0000.87%07:09 (02:23)
115 Western 1849 Reloaded Feb 10, 2017 $4.9965% (86%)0 .. 20,0000%00:00 (00:00)
116 Star Ruler Sep 20, 2010 $9.9965% (86%)100,000 .. 200,0000%00:00 (00:00)
117 Age of Wonders Shadow Magic Oct 2010 $9.9965% (86%/82%)100,000 .. 200,0000.93%00:02 (00:00)
118 Bullet Sorrow VR Apr 17, 2017 $19.9965% (86%)0 .. 20,0000%00:00 (00:00)
119 Supreme Commander Sep 28, 2011 $12.9965% (86%/86%)500,000 .. 1,000,0000.26%01:29 (00:58)
120 Executive Assault Jul 17, 2015 $12.9965% (86%)50,000 .. 100,0005.08%06:16 (05:59)
121 N2O: Nitrous Oxide Jun 29, 2015 $4.99N/A (N/A)0 .. 20,0000%00:00 (00:00)
122 Slash or Die Jun 3, 2016 $2.9965% (86%)20,000 .. 50,0000%00:00 (00:00)
123 NOBUNAGA'S AMBITION: Souzou (Traditional Chinese version) Aug 2014 $24.9965% (86%)20,000 .. 50,0000%00:00 (00:00)
124 GIBZ Apr 7, 2017 $7.9962% (85%)20,000 .. 50,0003.45%00:09 (00:03)
125 Gurgamoth Feb 16, 2016 $4.9962% (85%)20,000 .. 50,0000%00:00 (00:00)
126 ShootMania Storm Apr 10, 2013 $19.9962% (85%/76%)50,000 .. 100,0000%00:00 (00:00)
127 Ghost Master Dec 21, 2006 $0.9962% (85%/81%)100,000 .. 200,0000%00:00 (00:00)
128 Interloper May 21, 2015 Free62% (85%/77%)50,000 .. 100,0000%00:00 (00:00)
129 Legend (1994) Apr 1, 1994 $4.99N/A (N/A)0 .. 20,0000%00:00 (00:00)
130 Rooks Keep Dec 5, 2014 $7.9962% (85%)20,000 .. 50,0000%00:00 (00:00)
131 VelocityUltra Dec 12, 2013 $9.9962% (85%)50,000 .. 100,0000%00:00 (00:00)
132 ENSLAVED: Odyssey to the West Premium Edition Oct 24, 2013 $19.9962% (85%/70%)200,000 .. 500,0000.19%03:14 (01:04)
133 Last Knight: Rogue Rider Edition Oct 3, 2014 $7.9962% (85%)20,000 .. 50,0000%00:00 (00:00)
134 Weapon of Choice Sep 23, 2015 $4.99N/A (N/A)0 .. 20,0002.33%03:02 (01:00)
135 The Way May 20, 2016 $14.9962% (85%/67%)50,000 .. 100,0001.04%00:49 (00:16)
136 Fat Chicken Dec 4, 2014 $9.99N/A (N/A)0 .. 20,0000%00:00 (00:00)
137 Neon Shadow Aug 25, 2016 $4.9960% (84%)0 .. 20,0000%00:00 (00:00)
138 Foresight Nov 28, 2014 $4.99N/A (N/A)0 .. 20,0000%00:00 (00:00)
139 Ballistic Tanks Sep 20, 2016 $4.9960% (84%)0 .. 20,0000%00:00 (00:00)
140 Act of War: Direct Action Mar 12, 2008 $2.9960% (84%/82%)20,000 .. 50,0000%00:00 (00:00)
141 Super Furball Apr 21, 2015 $3.99N/A (N/A)0 .. 20,0000%00:00 (00:00)
142 The Men of Yoshiwara: Kikuya Oct 15, 2015 $29.9960% (84%)0 .. 20,0000%00:00 (00:00)
143 Delta Force 2 Jun 18, 2009 $4.9960% (84%)20,000 .. 50,0000%00:00 (00:00)
144 CRYPTARK Jun 20, 2017 $14.9960% (84%/80%)50,000 .. 100,0001.41%00:02 (00:00)
145 Orbital Gear Aug 7, 2014 $9.9957% (83%/59%)200,000 .. 500,0000%00:00 (00:00)
146 Sudden Strike 2 Gold Aug 30, 2002 $5.9957% (83%)20,000 .. 50,0000%00:00 (00:00)
147 NOBUNAGA'S AMBITION: Sphere of Influence Sep 1, 2015 $59.9957% (83%/70%)20,000 .. 50,0005.56%00:35 (00:11)
148 Yomi May 8, 2015 $14.9957% (83%)0 .. 20,0000%00:00 (00:00)
149 Eador: Genesis Oct 14, 2013 $5.9957% (83%)50,000 .. 100,0000%00:00 (00:00)
150 Ace of Protectors Jun 27, 2016 $1.9957% (83%)20,000 .. 50,0000%00:00 (00:00)
151 Advanced Tactics Gold Aug 15, 2014 $29.9957% (83%)0 .. 20,0000%00:00 (00:00)
152 Galaxy Admirals Jan 17, 2017 $1.9957% (83%)50,000 .. 100,0000%00:00 (00:00)
153 PixelJunk Shooter Ultimate Oct 21, 2015 $9.9957% (83%)20,000 .. 50,0000%00:00 (00:00)
154 TY the Tasmanian Tiger 4 Sep 17, 2015 $5.9955% (82%)20,000 .. 50,0000%00:00 (00:00)
155 Bulletstorm: Full Clip Edition Apr 7, 2017 $39.9955% (82%/76%)50,000 .. 100,0000.79%00:38 (00:12)
156 Battle Group 2 Jun 13, 2014 $7.9955% (82%)50,000 .. 100,0000%00:00 (00:00)
157 The Tiny Tale 2 Jan 30, 2015 $6.99N/A (N/A)0 .. 20,0000%00:00 (00:00)
158 Square Brawl Oct 22, 2015 $4.9955% (82%)0 .. 20,0000%00:00 (00:00)
159 Magnifico Dec 2, 2014 $4.99N/A (N/A)50,000 .. 100,0000%00:00 (00:00)
160 Crush Your Enemies Jul 13, 2016 $9.9955% (82%/63%)20,000 .. 50,0000%00:00 (00:00)
161 Locoland May 28, 2015 $0.9953% (81%)0 .. 20,0000%00:00 (00:00)
162 Rack N Ruin Sep 1, 2015 $9.9953% (81%)0 .. 20,0000%00:00 (00:00)
163 In Verbis Virtus Apr 3, 2015 $19.9953% (81%)50,000 .. 100,0000%00:00 (00:00)
164 Toadled Sep 22, 2016 $0.9953% (81%)50,000 .. 100,0000%00:00 (00:00)
165 rymdkapsel Jan 30, 2014 $7.9953% (81%/77%)0 .. 20,0000%00:00 (00:00)
166 Disciples Sacred Lands Gold Oct 7, 2014 $7.9953% (81%)20,000 .. 50,0000%00:00 (00:00)
167 Tiki Man Jun 5, 2015 $0.553% (81%)20,000 .. 50,0000.88%00:42 (00:14)
168 Blade Arcus from Shining: Battle Arena Jul 28, 2016 $29.9953% (81%)0 .. 20,0000%00:00 (00:00)
169 Shadow Ops: Red Mercury Jul 2, 2014 $6.9953% (81%/61%)20,000 .. 50,0000%00:00 (00:00)
170 Fantasy Wars Aug 6, 2010 $4.9953% (81%/67%)50,000 .. 100,0000%00:00 (00:00)
171 Bloodsports.TV Mar 30, 2015 $9.9953% (81%/69%)50,000 .. 100,0000.9%04:48 (03:12)
172 Gun Metal Jan 16, 2014 $2.9953% (81%)200,000 .. 500,0000.34%03:18 (02:11)
173 htoL#NiQ: The Firefly Diary / htoL#NiQ-ホタルノニッキ- May 18, 2016 $9.9953% (81%)20,000 .. 50,0003.33%00:03 (00:01)
174 Perimeter Apr 3, 2014 $3.9953% (81%/77%)20,000 .. 50,0000%00:00 (00:00)
175 Defense Zone Jul 14, 2014 $3.99N/A (N/A)0 .. 20,0000%00:00 (00:00)
176 Conquest of Elysium 3 Oct 24, 2012 $9.9950% (80%)20,000 .. 50,0000%00:00 (00:00)
177 She Wants Me Dead May 13, 2016 $7.9950% (80%)0 .. 20,0000%00:00 (00:00)
178 Supreme Ruler 2020 Gold Jul 9, 2009 $9.9950% (80%/65%)50,000 .. 100,0000%00:00 (00:00)
179 Making History: The Calm & the Storm Mar 13, 2007 $4.9950% (80%/70%)50,000 .. 100,0000%00:00 (00:00)
180 7,62 High Calibre Apr 30, 2014 $4.9950% (80%)50,000 .. 100,0000%00:00 (00:00)
181 Enemy Mind Jun 6, 2014 $9.9950% (80%)200,000 .. 500,0000%00:00 (00:00)
182 Legends of Callasia Jun 10, 2016 $14.9950% (80%)50,000 .. 100,0000%00:00 (00:00)
183 Child Of Ault Jan 24, 2017 $9.99N/A (N/A)0 .. 20,0000%00:00 (00:00)
184 Monday Night Combat Jan 24, 2011 $4.9950% (80%/82%)200,000 .. 500,0000%00:00 (00:00)
185 Junk Jack Nov 30, 2016 $14.9950% (80%)0 .. 20,0000%00:00 (00:00)
186 Hail to the King: Deathbat Oct 30, 2014 $5.9950% (80%)0 .. 20,0000%00:00 (00:00)
187 Run Rabbit Run Mar 31, 2016 $3.9950% (80%)0 .. 20,0000%00:00 (00:00)
188 Zeno Clash 2 Apr 30, 2013 $14.9950% (80%)200,000 .. 500,0000.21%05:02 (01:40)
189 Protoshift Jan 15, 2016 $0.9950% (80%)0 .. 20,0000%00:00 (00:00)
190 ROD: Revolt Of Defense Aug 12, 2016 $0.9950% (80%)20,000 .. 50,0000%00:00 (00:00)
191 Umihara Kawase Shun: Steam Edition Nov 24, 2015 $11.99N/A (N/A)0 .. 20,0000%00:00 (00:00)
192 Fleet Command Oct 26, 2006 $9.9950% (80%)50,000 .. 100,0000%00:00 (00:00)
193 Trigger Runners Mar 3, 2016 $1.9950% (80%)0 .. 20,0000%00:00 (00:00)
194 Bet On Soldier Dec 5, 2014 $7.9950% (80%)20,000 .. 50,0000%00:00 (00:00)
195 Star Wolves 3: Civil War Mar 2, 2010 $4.9950% (80%)100,000 .. 200,0000%00:00 (00:00)
196 Vietnam ‘65 Mar 5, 2015 $9.9950% (80%/81%)20,000 .. 50,0000%00:00 (00:00)
197 Interplanetary May 12, 2015 N/A50% (80%)100,000 .. 200,0000.81%01:44 (02:16)
198 Graviteam Tactics: Operation Star Feb 11, 2014 $29.9950% (80%)20,000 .. 50,0000%00:00 (00:00)
199 Demons with Shotguns Apr 25, 2016 $9.9950% (80%)0 .. 20,0002.44%03:11 (01:03)
200 Envoy Mar 17, 2016 $4.9950% (80%)50,000 .. 100,0000%00:00 (00:00)
201 Conflict Desert Storm May 28, 2012 $6.9950% (80%/56%)20,000 .. 50,0001.47%00:07 (00:02)
202 Age of Gladiators Feb 25, 2016 $9.9948% (79%)50,000 .. 100,0000%00:00 (00:00)
203 TRON RUN/r Feb 16, 2016 $19.9948% (79%)0 .. 20,0000%00:00 (00:00)
204 TASTEE: Lethal Tactics May 10, 2016 $14.9948% (79%)20,000 .. 50,0000%00:00 (00:00)
205 David. Feb 16, 2015 $1.9948% (79%)50,000 .. 100,0000%00:00 (00:00)
206 Pharaonic Apr 28, 2016 $14.9948% (79%)20,000 .. 50,0000%00:00 (00:00)
207 Demolition Inc. Sep 19, 2011 $5.9948% (79%)50,000 .. 100,0000%00:00 (00:00)
208 Mold on Pizza Sep 25, 2015 $2.9948% (79%)0 .. 20,0000%00:00 (00:00)
209 Fortified Feb 3, 2016 $14.9948% (79%)500,000 .. 1,000,0000.45%03:47 (04:26)
210 Nuclear Dawn Sep 26, 2011 $9.9948% (79%/71%)200,000 .. 500,0000.43%08:19 (05:32)
211 PAC-MAN and the Ghostly Adventures Oct 29, 2013 $19.9948% (79%)0 .. 20,0000%00:00 (00:00)
212 Klang Sep 22, 2016 $14.9948% (79%/71%)0 .. 20,0000%00:00 (00:00)
213 Caster Mar 19, 2009 $1.9948% (79%)200,000 .. 500,0000%00:00 (00:00)
214 The Legend of Dark Witch Dec 1, 2015 $4.9948% (79%)20,000 .. 50,0000%00:00 (00:00)
215 Advent Rising Sep 14, 2006 $9.9948% (79%/70%)50,000 .. 100,0000%00:00 (00:00)
216 Fate of the World Feb 28, 2011 $9.9948% (79%/70%)50,000 .. 100,0000%00:00 (00:00)
217 Ironcast Mar 26, 2015 $14.9948% (79%/75%)20,000 .. 50,0003.45%00:34 (00:11)
218 Dominions 3: The Awakening Sep 10, 2013 $19.9946% (78%/82%)0 .. 20,0000%00:00 (00:00)
219 Battle Mages: Sign of Darkness Jul 24, 2014 $0.9946% (78%)0 .. 20,0000%00:00 (00:00)
220 Heroes of Might & Magic V: Hammers of Fate Oct 10, 2008 $9.9946% (78%/66%)100,000 .. 200,0000.93%00:04 (00:02)
221 King of Dragon Pass Jul 28, 2015 $11.9946% (78%)20,000 .. 50,0000%00:00 (00:00)
222 Star Realms Mar 8, 2016 Free46% (78%)100,000 .. 200,0000%00:00 (00:00)
223 Mysterium: A Psychic Clue Game Jan 12, 2017 $6.9946% (78%)50,000 .. 100,0000%00:00 (00:00)
224 Gatling Gears Aug 30, 2011 $9.9946% (78%)20,000 .. 50,0000%00:00 (00:00)
225 Zombie Party Jun 10, 2016 $9.9946% (78%)100,000 .. 200,0000%00:00 (00:00)
226 Zombie Killtime Aug 4, 2015 $1.99N/A (N/A)0 .. 20,0000%00:00 (00:00)
227 Deadly 30 Jan 8, 2014 $4.9946% (78%)100,000 .. 200,0000.35%02:05 (00:41)
228 Strike Suit Zero: Director's Cut Apr 8, 2014 $19.9946% (78%)20,000 .. 50,0000%00:00 (00:00)
229 Dead Rising 2: Off the Record Oct 11, 2011 $19.9946% (78%/66%)200,000 .. 500,0000.74%02:25 (02:32)
230 Defense Zone 3 Ultra HD Dec 14, 2016 $3.9946% (78%)20,000 .. 50,0000%00:00 (00:00)
231 Anomaly 2 May 15, 2013 $14.9946% (78%/77%)200,000 .. 500,0000.4%00:50 (00:33)
232 Cultures - 8th Wonder of the World Mar 26, 2015 $4.9946% (78%)50,000 .. 100,0000%00:00 (00:00)
233 Blue Effect VR Sep 29, 2016 $14.9946% (78%)0 .. 20,0000%00:00 (00:00)
234 Anomaly Warzone Earth Mobile Campaign Nov 6, 2013 $4.9946% (78%)100,000 .. 200,0000.43%01:32 (00:30)
235 Tank Destroyer Mar 9, 2017 $0.546% (78%)20,000 .. 50,0000%00:00 (00:00)
236 Aeon Command Jul 3, 2014 $2.9944% (77%)20,000 .. 50,0000%00:00 (00:00)
237 Starchaser: Priestess of the Night Sky Jul 24, 2015 $9.99N/A (N/A)0 .. 20,0000%00:00 (00:00)
238 A Blind Legend Apr 7, 2016 $6.9944% (77%)0 .. 20,0000%00:00 (00:00)
239 Vector Strain Dec 9, 2015 $4.9944% (77%)20,000 .. 50,0000%00:00 (00:00)
240 Age of Wonders Oct 2010 $5.9944% (77%)100,000 .. 200,0000%00:00 (00:00)
241 Sky Gamblers: Storm Raiders Jan 7, 2015 $9.9944% (77%)0 .. 20,0000%00:00 (00:00)
242 Afghanistan '11 Mar 23, 2017 $29.9944% (77%)0 .. 20,0000%00:00 (00:00)
243 McDROID Sep 5, 2014 $9.9944% (77%)0 .. 20,0000%00:00 (00:00)
244 Dangerous Waters Feb 7, 2006 $14.9944% (77%/82%)50,000 .. 100,0000%00:00 (00:00)
245 Deadlings: Rotten Edition Nov 11, 2014 $3.9944% (77%)50,000 .. 100,0000%00:00 (00:00)
246 Ninjahtic Jul 6, 2015 $1.9944% (77%)0 .. 20,0000%00:00 (00:00)
247 Jim Power -The Lost Dimension Dec 10, 1993 $4.99N/A (N/A)0 .. 20,0000%00:00 (00:00)
248 BloodRayne Sep 14, 2006 $9.9944% (77%/65%)50,000 .. 100,0000.8%02:58 (00:59)
249 The Political Machine 2016 Feb 4, 2016 $4.9944% (77%)50,000 .. 100,0000%00:00 (00:00)
250 Warhammer 40,000: Armageddon Nov 26, 2014 $39.9944% (77%/68%)20,000 .. 50,0005.88%00:16 (00:05)
251 Curse of the Crescent Isle DX Aug 21, 2015 $0.9944% (77%)0 .. 20,0000%00:00 (00:00)
252 Warlords Battlecry III May 17, 2004 $9.9944% (77%/73%)20,000 .. 50,00012.5%00:02 (00:00)
253 Chaser Jul 16, 2010 $4.9942% (76%/66%)50,000 .. 100,0000%00:00 (00:00)
254 Making History II: The War of the World Aug 27, 2010 $14.9942% (76%/38%)20,000 .. 50,0000%00:00 (00:00)
255 Z Jul 4, 2014 $6.9942% (76%)100,000 .. 200,0000.59%10:01 (06:40)
256 Velocity 2X Aug 19, 2015 $19.99N/A (N/A)50,000 .. 100,0000%00:00 (00:00)
257 Arcane Sorcery Sep 15, 2015 $4.99N/A (N/A)0 .. 20,0000%00:00 (00:00)
258 Rocketbirds 2 Evolution Jan 26, 2017 $9.9942% (76%)20,000 .. 50,0000%00:00 (00:00)
259 Painkiller Hell & Damnation Oct 31, 2012 $19.9942% (76%/64%)500,000 .. 1,000,0000.16%00:06 (00:02)
260 Corgi Warlock Dec 3, 2015 $1.9942% (76%)20,000 .. 50,0000%00:00 (00:00)
261 Battlezone Gold Edition May 11, 2017 $34.9942% (76%)0 .. 20,0000%00:00 (00:00)
262 Olympia Rising Jul 23, 2015 $4.9942% (76%)20,000 .. 50,0000%00:00 (00:00)
263 Cashtronauts Sep 1, 2016 $2.9942% (76%)0 .. 20,0003.13%04:03 (01:21)
264 Civil War II Jul 3, 2014 $39.9942% (76%)0 .. 20,0000%00:00 (00:00)
265 Cuban Missile Crisis Mar 25, 2015 $4.9940% (75%)20,000 .. 50,0000%00:00 (00:00)
266 Hunting Unlimited 2008 Jan 29, 2008 $9.99N/A (N/A)20,000 .. 50,0000%00:00 (00:00)
267 Bubsy Two-Fur Jan 1, 1993 $4.9940% (75%)20,000 .. 50,0004.55%00:03 (00:01)
268 Livelock Aug 30, 2016 $9.9940% (75%/73%)20,000 .. 50,0000%00:00 (00:00)
269 After The End: The Harvest Jun 2, 2017 $4.9940% (75%)20,000 .. 50,0000%00:00 (00:00)
270 Vampire of the Sands Jul 17, 2015 $4.9940% (75%)20,000 .. 50,0000%00:00 (00:00)
271 Platformines Mar 28, 2014 $9.9940% (75%/67%)100,000 .. 200,0000.58%01:01 (00:20)
272 Rocket Knight May 11, 2010 $14.9940% (75%/63%)0 .. 20,0000%00:00 (00:00)
273 Star Hammer: The Vanguard Prophecy Jun 4, 2015 $19.9940% (75%/69%)0 .. 20,00012.5%00:07 (00:02)
274 Riddled Corpses Jun 2, 2015 $7.9940% (75%)20,000 .. 50,0000%00:00 (00:00)
275 Perimeter: Emperor's Testament May 22, 2014 $3.99N/A (N/A/72%)20,000 .. 50,0000%00:00 (00:00)
276 Heaven Forest NIGHTS Mar 13, 2017 $0.9940% (75%)100,000 .. 200,0000%00:00 (00:00)
277 Death by Game Show Jan 22, 2016 $9.9940% (75%)20,000 .. 50,0000%00:00 (00:00)
278 Onechanbara Z2: Chaos Jun 2, 2016 $39.9940% (75%)0 .. 20,0000%00:00 (00:00)
279 Fist Puncher Jun 21, 2013 $9.9940% (75%/73%)20,000 .. 50,0001.37%00:35 (00:11)
280 CivCity: Rome Apr 6, 2007 $9.9940% (75%/67%)50,000 .. 100,0000%00:00 (00:00)
281 Victory At Sea Aug 8, 2014 $7.4940% (75%)20,000 .. 50,0000%00:00 (00:00)
282 Extravaganza Rising Jul 21, 2016 N/AN/A (N/A)20,000 .. 50,0000%00:00 (00:00)
283 TableTop Soccer Apr 22, 2016 $0.9938% (74%)0 .. 20,0000%00:00 (00:00)
284 BossConstructor Oct 24, 2016 $14.9938% (74%)0 .. 20,0000%00:00 (00:00)
285 The Aquatic Adventure of the Last Human Jan 19, 2016 $9.9938% (74%/76%)0 .. 20,0000%00:00 (00:00)
286 WARSHIFT Oct 12, 2016 $12.9938% (74%)20,000 .. 50,0000%00:00 (00:00)
287 A.R.E.S. Extinction Agenda EX Oct 3, 2014 $9.9938% (74%)0 .. 20,0000%00:00 (00:00)
288 Smell Of Death Jul 4, 2016 $9.9938% (74%)0 .. 20,0000%00:00 (00:00)
289 Spirits of Xanadu Mar 26, 2015 $0.9938% (74%)20,000 .. 50,0000%00:00 (00:00)
290 Master Reboot Oct 29, 2013 $14.9938% (74%/59%)50,000 .. 100,0000%00:00 (00:00)
291 Commander: The Great War Jul 25, 2014 $29.9938% (74%)0 .. 20,0000%00:00 (00:00)
292 Albino Lullaby: Episode 1 Sep 14, 2015 $9.9938% (74%)20,000 .. 50,0000%00:00 (00:00)
293 Monster Monpiece Mar 14, 2017 $19.9938% (74%)0 .. 20,0000%00:00 (00:00)
294 Making History: The Great War Jan 29, 2015 $29.9938% (74%)20,000 .. 50,0000%00:00 (00:00)
295 Battle Fleet 2 Nov 20, 2014 $14.9937% (73%)20,000 .. 50,0000%00:00 (00:00)
296 Codex of Victory Mar 16, 2017 $14.9937% (73%)0 .. 20,00018.18%02:29 (03:17)
297 Viktor Jun 13, 2014 $0.7937% (73%)20,000 .. 50,0000%00:00 (00:00)
298 Divinity: Dragon Commander Aug 6, 2013 $39.9937% (73%)200,000 .. 500,0000%00:00 (00:00)
299 Supreme Ruler Ultimate Oct 17, 2014 $19.9937% (73%)20,000 .. 50,0000%00:00 (00:00)
300 Sid Meier’s Ace Patrol Aug 27, 2013 $4.9937% (73%)500,000 .. 1,000,0000.19%08:18 (02:46)
301 Distant Worlds: Universe May 23, 2014 $59.9937% (73%/81%)50,000 .. 100,0007.69%07:37 (07:36)
302 FEIST Jul 23, 2015 $9.9937% (73%/65%)20,000 .. 50,0000%00:00 (00:00)
303 Hot Tin Roof: The Cat That Wore A Fedora Feb 20, 2015 $14.9937% (73%/66%)100,000 .. 200,0000.6%01:32 (00:30)
304 Rex Rocket Aug 5, 2014 $4.9937% (73%)20,000 .. 50,0000%00:00 (00:00)
305 Ubersoldier II Mar 25, 2014 $1.9937% (73%/62%)20,000 .. 50,0000%00:00 (00:00)
306 Gold Rush! Anniversary Nov 7, 2014 $5.99N/A (N/A)100,000 .. 200,0000.29%01:00 (00:20)
307 Pike and Shot : Campaigns Aug 13, 2015 $39.9937% (73%)0 .. 20,0000%00:00 (00:00)
308 Sengoku Jidai: Shadow of the Shogun May 19, 2016 $29.9937% (73%/85%)0 .. 20,0000%00:00 (00:00)
309 Disney Planes Oct 6, 2014 $19.99N/A (N/A)0 .. 20,0000%00:00 (00:00)
310 VRZ: Torment Jun 9, 2016 $9.9935% (72%)0 .. 20,0000%00:00 (00:00)
311 Wyv and Keep: The Temple of the Lost Idol Aug 8, 2014 $14.99N/A (N/A)20,000 .. 50,0000%00:00 (00:00)
312 Elliot Quest Nov 10, 2014 $9.9935% (72%)20,000 .. 50,0001.45%00:15 (00:05)
313 Deadnaut Dec 8, 2014 $9.9935% (72%)0 .. 20,0000%00:00 (00:00)
314 Elven Legacy Apr 7, 2009 $4.9935% (72%/71%)50,000 .. 100,0000%00:00 (00:00)
315 Smithy Jun 3, 2016 $3.99N/A (N/A)50,000 .. 100,0000%00:00 (00:00)
316 Pongo May 11, 2015 $0.9935% (72%)100,000 .. 200,0000.83%335:19 (111:46)
317 REDCON Apr 22, 2016 $5.9935% (72%)0 .. 20,0005.88%00:01 (00:00)
318 Pick a Hero Jun 9, 2016 $1.99N/A (N/A)0 .. 20,0000%00:00 (00:00)
319 Rise & Shine Jan 13, 2017 $14.9935% (72%)50,000 .. 100,0002.03%01:21 (00:39)
320 Incandescent Jun 30, 2015 $0.9935% (72%)20,000 .. 50,0000%00:00 (00:00)
321 Lost Planet: Extreme Condition Jun 26, 2007 $14.9935% (72%/66%)200,000 .. 500,0000.55%00:01 (00:00)
322 Warp Mar 21, 2012 $9.9935% (72%)20,000 .. 50,0000%00:00 (00:00)
323 Cast of the Seven Godsends - Redux Jul 20, 2015 $9.9935% (72%)20,000 .. 50,0000%00:00 (00:00)
324 Airship Dragoon Aug 26, 2014 $19.99N/A (N/A)0 .. 20,0000%00:00 (00:00)
325 Banzai Escape Mar 16, 2016 $5.9935% (72%)20,000 .. 50,0000%00:00 (00:00)
326 Wildlife Park 2 - Crazy Zoo Jul 17, 2014 $3.99N/A (N/A)20,000 .. 50,0000%00:00 (00:00)
327 Retrovirus Jan 31, 2013 $9.9935% (72%/70%)20,000 .. 50,0000%00:00 (00:00)
328 Auro: A Monster-Bumping Adventure Apr 13, 2016 $6.9935% (72%)0 .. 20,0000%00:00 (00:00)
329 King Arthur - The Role-playing Wargame Nov 24, 2009 $9.9935% (72%)200,000 .. 500,0000%00:00 (00:00)
330 FIVE: Champions of Canaan Sep 27, 2016 $3.9934% (71%)0 .. 20,0000%00:00 (00:00)
331 Cross of the Dutchman Sep 10, 2015 $8.9934% (71%/59%)20,000 .. 50,0001.82%01:46 (00:35)
332 AirMech Command Mar 8, 2017 $19.9934% (71%)0 .. 20,0000%00:00 (00:00)
333 Civil War: Battle of Petersburg Feb 8, 2017 $0.9934% (71%)0 .. 20,0000%00:00 (00:00)
334 The Last Federation Apr 18, 2014 $19.9934% (71%/72%)50,000 .. 100,0000%00:00 (00:00)
335 Tom Clancy's EndWar Feb 25, 2009 $9.9934% (71%/68%)50,000 .. 100,0000%00:00 (00:00)
336 Spud's Quest Jul 31, 2014 $7.99N/A (N/A)0 .. 20,0000%00:00 (00:00)
337 Zoo Empire Sep 3, 2015 $6.99N/A (N/A/59%)0 .. 20,0000%00:00 (00:00)
338 LEGO Indiana Jones 2: The Adventure Continues Feb 18, 2010 $19.9934% (71%/66%)50,000 .. 100,0000%00:00 (00:00)
339 There Came an Echo Feb 24, 2015 $14.9934% (71%/58%)20,000 .. 50,0000%00:00 (00:00)
340 Jagged Alliance 2 - Wildfire Nov 16, 2012 $6.9934% (71%)200,000 .. 500,0001.29%05:01 (05:43)
341 Battle Time Sep 29, 2016 $0.9934% (71%)50,000 .. 100,0000.77%03:37 (01:12)
342 Phoning Home Feb 7, 2017 $19.9934% (71%/61%)20,000 .. 50,0003.23%01:42 (00:47)
343 rooMaze Mar 3, 2017 $1.9934% (71%)100,000 .. 200,0000.65%04:01 (01:20)
344 BitMaster Oct 12, 2016 $2.9932% (70%)200,000 .. 500,0000%00:00 (00:00)
345 8-Bit Commando Jun 2, 2014 $2.9932% (70%)50,000 .. 100,0002.02%00:02 (00:01)
346 Collapse Apr 11, 2014 $19.9932% (70%)50,000 .. 100,0000%00:00 (00:00)
347 Lux Delux May 1, 2015 $9.9932% (70%)20,000 .. 50,0000%00:00 (00:00)
348 Space Colony: Steam Edition Apr 30, 2015 $14.9932% (70%/74%)20,000 .. 50,0001.69%00:32 (00:10)
349 A.R.E.S.: Extinction Agenda Jan 19, 2011 $4.9932% (70%/68%)100,000 .. 200,0000%00:00 (00:00)
350 Sol 0: Mars Colonization Jan 15, 2016 $3.9930% (69%)20,000 .. 50,0000%00:00 (00:00)
351 Othello Mar 19, 2015 $9.9930% (69%)0 .. 20,0000%00:00 (00:00)
352 Panzer Tactics HD May 22, 2014 $9.9930% (69%/69%)20,000 .. 50,0000%00:00 (00:00)
353 The Superfluous May 19, 2017 $4.99N/A (N/A)0 .. 20,0000%00:00 (00:00)
354 Warrior Kings Apr 24, 2014 $9.99N/A (N/A/73%)0 .. 20,0000%00:00 (00:00)
355 The Nightmare Cooperative Jul 16, 2014 $4.99N/A (N/A)50,000 .. 100,0000.99%00:04 (00:01)
356 Strategy & Tactics: Wargame Collection Apr 22, 2016 $9.9930% (69%)20,000 .. 50,0000%00:00 (00:00)
357 Little King's Story Aug 5, 2016 $19.9930% (69%/62%)0 .. 20,0000%00:00 (00:00)
358 The Living Dungeon Nov 2, 2015 $9.9929% (68%)0 .. 20,0000%00:00 (00:00)
359 Alea Jacta Est Nov 4, 2014 $24.99N/A (N/A)0 .. 20,0000%00:00 (00:00)
360 Guns n Zombies Oct 30, 2014 $7.9929% (68%)100,000 .. 200,0000%00:00 (00:00)
361 Space Food Truck Mar 25, 2016 $9.9929% (68%)20,000 .. 50,0000%00:00 (00:00)
362 Gates of Horizon Dec 18, 2014 Free29% (68%)0 .. 20,0000%00:00 (00:00)
363 Bedlam Oct 13, 2015 $12.9929% (68%/54%)100,000 .. 200,0000.41%00:03 (00:01)
364 Chainsaw Warrior Oct 7, 2013 $4.9929% (68%)100,000 .. 200,0001.32%02:25 (02:02)
365 ManaCollect Apr 17, 2015 $6.99N/A (N/A)0 .. 20,0000%00:00 (00:00)
366 Royal Defense Nov 10, 2014 $4.9929% (68%)50,000 .. 100,0000%00:00 (00:00)
367 Pigmentone Jul 8, 2016 $1.99N/A (N/A)0 .. 20,0000%00:00 (00:00)
368 Revolution Under Siege Gold Jul 2, 2015 $24.9929% (68%)0 .. 20,0000%00:00 (00:00)
369 Brigade E5: New Jagged Union Apr 30, 2014 $3.9929% (68%/41%)0 .. 20,0000%00:00 (00:00)
370 YAIBA: NINJA GAIDEN Z Mar 21, 2014 $29.9929% (68%/49%)20,000 .. 50,0003.33%00:24 (00:08)
371 Toren May 11, 2015 $9.9927% (67%/57%)50,000 .. 100,0000%00:00 (00:00)
372 Nomad Fleet Jul 14, 2015 $4.9927% (67%)0 .. 20,0007.69%04:42 (01:34)
373 Zafehouse: Diaries Sep 6, 2013 $1.9927% (67%)50,000 .. 100,0000%00:00 (00:00)
374 Toy Odyssey: The Lost and Found Sep 20, 2016 $14.9927% (67%/66%)20,000 .. 50,0000%00:00 (00:00)
375 Infinity Runner Jul 14, 2014 $6.9927% (67%/56%)0 .. 20,0000%00:00 (00:00)
376 Kill The Plumber Dec 31, 2015 $4.9927% (67%)0 .. 20,0000%00:00 (00:00)
377 Stonerid Aug 15, 2014 $4.9927% (67%)50,000 .. 100,0000%00:00 (00:00)
378 Heroes of Arca Feb 16, 2017 Free27% (67%)0 .. 20,0000%00:00 (00:00)
379 Survivor Squad: Gauntlets Nov 16, 2015 $0.9927% (67%)20,000 .. 50,0001.92%00:04 (00:01)
380 The Hive Aug 25, 2016 $9.9927% (67%)20,000 .. 50,0000%00:00 (00:00)
381 FIVE: Guardians of David Nov 24, 2015 $9.9927% (67%/66%)20,000 .. 50,0000%00:00 (00:00)
382 Mad Combat Marines Jul 13, 2016 $0.9926% (66%)20,000 .. 50,0000%00:00 (00:00)
383 Men of War: Condemned Heroes Apr 12, 2012 $7.9926% (66%/57%)100,000 .. 200,0000%00:00 (00:00)
384 RISK: Factions Mar 8, 2011 $9.9926% (66%/77%)50,000 .. 100,0000%00:00 (00:00)
385 Zombie Camp Aug 1, 2016 $1.99N/A (N/A)0 .. 20,0000%00:00 (00:00)
386 Sengoku Sep 15, 2011 $9.9926% (66%/70%)100,000 .. 200,0000%00:00 (00:00)
387 Assassin’s Creed Chronicles: India Jan 12, 2016 $9.9926% (66%)20,000 .. 50,0001.25%00:10 (00:03)
388 Scourge: Outbreak Apr 2, 2014 $7.9926% (66%)100,000 .. 200,0000%00:00 (00:00)
389 Urban Pirate Jun 17, 2016 $6.99N/A (N/A)0 .. 20,0000%00:00 (00:00)
390 March of the Eagles Feb 18, 2013 $19.9926% (66%/71%)50,000 .. 100,0000%00:00 (00:00)
391 1849 May 8, 2014 $14.9926% (66%)20,000 .. 50,0000%00:00 (00:00)
392 Sky To Fly: Faster Than Wind Mar 25, 2016 $3.9926% (66%)0 .. 20,0000%00:00 (00:00)
393 Zombie City Defense 2 Aug 19, 2016 $9.9926% (66%)0 .. 20,0000%00:00 (00:00)
394 Theatre of War 2: Africa 1943 Jul 9, 2010 $4.9926% (66%/63%)100,000 .. 200,0000.75%00:24 (00:08)
395 1775: Rebellion Sep 29, 2016 $24.99N/A (N/A)0 .. 20,0000%00:00 (00:00)
396 Fair Strike Apr 23, 2015 $3.99N/A (N/A/56%)0 .. 20,0000%00:00 (00:00)
397 Quick Slick Deadly Sep 21, 2015 $1.9926% (66%)20,000 .. 50,0000%00:00 (00:00)
398 Commander Cool 2 Dec 17, 2015 $2.9926% (66%)20,000 .. 50,0001.47%02:56 (00:58)
399 7th Legion Oct 23, 2014 $6.99N/A (N/A)0 .. 20,0000%00:00 (00:00)
400 Zombie Tycoon 2: Brainhov's Revenge Dec 9, 2013 $4.9924% (65%)50,000 .. 100,0000%00:00 (00:00)
401 Marauder Apr 4, 2014 $1.9924% (65%)20,000 .. 50,0000%00:00 (00:00)
402 Platypus II Aug 15, 2014 $6.9924% (65%)200,000 .. 500,0000.53%02:59 (01:58)
403 Ground Breakers Jun 15, 2016 $0.99N/A (N/A)0 .. 20,0000%00:00 (00:00)
404 Devil's Dare 悪魔の挑戦 Oct 21, 2014 $12.9923% (64%)20,000 .. 50,0000%00:00 (00:00)
405 Frozen Synapse Prime Nov 14, 2014 $24.9923% (64%/83%)100,000 .. 200,0000%00:00 (00:00)
406 Kaiju-A-GoGo Apr 23, 2015 $9.9923% (64%)20,000 .. 50,0000%00:00 (00:00)
407 Hunters Of The Dead Sep 4, 2014 $4.9923% (64%)20,000 .. 50,0000%00:00 (00:00)
408 Link Apr 22, 2016 $4.99N/A (N/A)0 .. 20,0000%00:00 (00:00)
409 Revenge of Roger Rouge Apr 22, 2016 $0.99N/A (N/A)20,000 .. 50,0000%00:00 (00:00)
410 Gnumz: Masters of Defense Dec 21, 2015 $4.9923% (64%)20,000 .. 50,0000%00:00 (00:00)
411 Jagged Alliance: Crossfire Aug 24, 2012 $14.9923% (64%/63%)100,000 .. 200,0000%00:00 (00:00)
412 Warlock 2: The Exiled Apr 10, 2014 $19.9923% (64%/73%)50,000 .. 100,0000%00:00 (00:00)
413 My Super Tower 2 Jan 27, 2017 $0.9923% (64%)50,000 .. 100,0001.92%04:02 (01:20)
414 Port Royale 2 Jun 16, 2009 $4.9923% (64%/75%)50,000 .. 100,0000%00:00 (00:00)
415 Zoo Rampage Jul 9, 2014 $3.9923% (64%)20,000 .. 50,0000%00:00 (00:00)
416 Theatre of War 2: Kursk 1943 Jul 9, 2010 $4.9923% (64%)50,000 .. 100,0001.2%01:26 (00:28)
417 UnSummoning: the Spectral Horde Dec 21, 2015 FreeN/A (N/A)0 .. 20,0000%00:00 (00:00)
418 The Seven Years War (1756-1763) Oct 30, 2015 $1.9922% (63%)0 .. 20,0000%00:00 (00:00)
419 Malebolgia May 6, 2015 $12.9922% (63%)0 .. 20,0000%00:00 (00:00)
420 The Few Jun 18, 2014 $7.9922% (63%)20,000 .. 50,0000%00:00 (00:00)
421 Beasts Battle Jun 15, 2016 $1.9922% (63%)20,000 .. 50,0000%00:00 (00:00)
422 Overruled! Sep 15, 2015 $12.99N/A (N/A)20,000 .. 50,0000%00:00 (00:00)
423 Disney Pirates of the Caribbean: At Worlds End Oct 6, 2014 $19.9922% (63%)20,000 .. 50,0000%00:00 (00:00)
424 A Game of Dwarves Oct 23, 2012 $9.9922% (63%/60%)50,000 .. 100,0000%00:00 (00:00)
425 Pixel Boy and the Ever Expanding Dungeon May 30, 2014 $0.9922% (63%)20,000 .. 50,0000%00:00 (00:00)
426 Battle Worlds: Kronos Nov 4, 2013 $19.9922% (63%/71%)20,000 .. 50,0000%00:00 (00:00)
427 To End All Wars Aug 29, 2014 $39.9922% (63%/71%)0 .. 20,0000%00:00 (00:00)
428 Sorcerer King: Rivals Sep 22, 2016 $19.9922% (63%)20,000 .. 50,0000%00:00 (00:00)
429 Spirit of War Mar 12, 2015 $9.99N/A (N/A)20,000 .. 50,0000%00:00 (00:00)
430 4089: Ghost Within Jan 9, 2015 $5.9921% (62%)0 .. 20,0000%00:00 (00:00)
431 Desert Ashes Nov 10, 2014 $4.99N/A (N/A)20,000 .. 50,0000%00:00 (00:00)
432 Supreme Ruler: Cold War Jul 29, 2011 $9.9921% (62%/63%)20,000 .. 50,0000%00:00 (00:00)
433 Hyperspace Pinball Sep 30, 2015 $2.99N/A (N/A)0 .. 20,0000%00:00 (00:00)
434 Freight Tycoon Inc. Apr 3, 2014 $4.9921% (62%)20,000 .. 50,0002.38%03:02 (01:00)
435 Goblin Defenders: Steel‘n’ Wood Aug 21, 2013 $2.9921% (62%)20,000 .. 50,0000%00:00 (00:00)
436 SPACECOM Sep 17, 2014 $9.9921% (62%/68%)100,000 .. 200,0000.32%00:34 (00:11)
437 Spice Road Apr 24, 2014 $19.99N/A (N/A)0 .. 20,0000%00:00 (00:00)
438 War, the Game Jan 12, 2015 $6.9920% (61%/65%)20,000 .. 50,0000%00:00 (00:00)
439 NOBUNAGA'S AMBITION: Sphere of Influence - Ascension / 信長の野望・創造 戦国立志伝 Mar 23, 2016 $59.9920% (61%)100,000 .. 200,0000%00:00 (00:00)
440 Legions of Steel Jul 16, 2015 $19.99N/A (N/A/64%)0 .. 20,0000%00:00 (00:00)
441 Bombshell Jan 29, 2016 $34.9920% (61%/43%)20,000 .. 50,0002.22%08:24 (02:48)
442 Disney Epic Mickey 2: The Power of Two Oct 6, 2014 $19.9920% (61%)20,000 .. 50,0000%00:00 (00:00)
443 Close Combat - Panthers in the Fog May 14, 2015 $39.9920% (61%)0 .. 20,00018.18%55:19 (36:45)
444 Flashback Oct 1, 2013 $9.9920% (61%)20,000 .. 50,0000%00:00 (00:00)
445 Disciples III - Renaissance Steam Special Edition Jul 16, 2010 $14.9920% (61%/56%)100,000 .. 200,0000.5%00:01 (00:00)
446 Will Fight for Food: Super Actual Sellout: Game of the Hour Apr 22, 2015 $4.99N/A (N/A)0 .. 20,0000%00:00 (00:00)
447 Hybrid Wars Sep 29, 2016 $6.9918% (60%/54%)0 .. 20,0000%00:00 (00:00)
448 Call of Duty: Black Ops - Mac Edition Sep 27, 2012 $19.9918% (60%)50,000 .. 100,0003.13%02:27 (00:59)
449 Merchants of Kaidan Nov 10, 2014 $14.9918% (60%)100,000 .. 200,0000.28%05:34 (01:51)
450 BattleLore: Command Mar 31, 2015 $6.9918% (60%)0 .. 20,0000%00:00 (00:00)
451 Assault on Arnhem Mar 11, 2016 $9.99N/A (N/A)0 .. 20,0000%00:00 (00:00)
452 Heavy Fire: Afghanistan Aug 15, 2014 $2.9918% (60%)20,000 .. 50,0000%00:00 (00:00)
453 Rise: Battle Lines Nov 17, 2015 $1.9918% (60%)0 .. 20,0000%00:00 (00:00)
454 Purgatory Jun 22, 2016 $0.4918% (60%)200,000 .. 500,0000.09%03:49 (01:16)
455 Woolfe - The Red Hood Diaries Mar 17, 2015 $9.9918% (60%/55%)50,000 .. 100,0000%00:00 (00:00)
456 Defend Your Crypt Jul 21, 2016 $2.99N/A (N/A)0 .. 20,0000%00:00 (00:00)
457 Men of War: Vietnam Sep 8, 2011 $7.9918% (60%/68%)100,000 .. 200,0000%00:00 (00:00)
458 Antisquad May 22, 2014 $5.9917% (59%)50,000 .. 100,0000%00:00 (00:00)
459 Armada 2526 Gold Edition Feb 28, 2013 $19.9917% (59%/66%)20,000 .. 50,0000%00:00 (00:00)
460 7 Grand Steps: What Ancients Begat Jun 7, 2013 $19.9917% (59%)100,000 .. 200,0000%00:00 (00:00)
461 Ninjahtic Mind Tricks Jul 16, 2015 $1.99N/A (N/A)0 .. 20,0000%00:00 (00:00)
462 Wanderlust Adventures Aug 10, 2015 $9.9917% (59%)20,000 .. 50,0000%00:00 (00:00)
463 Skyshine's BEDLAM Sep 16, 2015 $19.9917% (59%/67%)20,000 .. 50,0000%00:00 (00:00)
464 Colonial Conquest Jul 28, 2015 $9.9917% (59%)0 .. 20,0000%00:00 (00:00)
465 Patrician IV - Steam Special Edition Sep 17, 2010 $14.9917% (59%/66%)100,000 .. 200,0000%00:00 (00:00)
466 Prospekt Feb 18, 2016 $9.9917% (59%)20,000 .. 50,0000%00:00 (00:00)
467 Quarantine Feb 9, 2017 $9.9917% (59%)0 .. 20,0000%00:00 (00:00)
468 Check vs Mate Aug 16, 2012 $19.9917% (59%/69%)0 .. 20,0000%00:00 (00:00)
469 Crazy Forest Jul 6, 2016 $4.9916% (58%)100,000 .. 200,0000%00:00 (00:00)
470 Prophour23 Oct 22, 2014 $9.99N/A (N/A)0 .. 20,0000%00:00 (00:00)
471 Battleplan: American Civil War Jul 4, 2014 $9.9916% (58%/66%)100,000 .. 200,0000.97%03:46 (01:13)
472 E.T. Armies Mar 3, 2016 $14.9916% (58%/54%)0 .. 20,0000%00:00 (00:00)
473 Sir! I'd Like To Report A Bug! Oct 19, 2015 $1.99N/A (N/A)0 .. 20,0000%00:00 (00:00)
474 Ceres Oct 16, 2015 $3.5916% (58%/74%)0 .. 20,0000%00:00 (00:00)
475 Woodle Tree 2: Worlds Sep 16, 2016 $3.9916% (58%)50,000 .. 100,0000%00:00 (00:00)
476 Cemetery Warrior 3 Feb 3, 2017 $0.9916% (58%)50,000 .. 100,0000%00:00 (00:00)
477 Unearthed: Trail of Ibn Battuta - Episode 1 - Gold Edition Jan 3, 2014 $4.9916% (58%)20,000 .. 50,0000%00:00 (00:00)
478 Code of Princess Apr 14, 2016 $14.9915% (57%/53%)0 .. 20,0000%00:00 (00:00)
479 Rise of Venice Sep 27, 2013 $19.9915% (57%/66%)50,000 .. 100,0000%00:00 (00:00)
480 Life in Bunker Feb 25, 2016 $15.9915% (57%)0 .. 20,0000%00:00 (00:00)
481 Abalone Apr 23, 2014 $6.99N/A (N/A)0 .. 20,0009.38%04:13 (04:02)
482 DreamBreak Jul 21, 2016 $6.9915% (56%/46%)20,000 .. 50,0000%00:00 (00:00)
483 Super Helmets on Fire DX Ultra Edition Plus Alpha Feb 15, 2016 $0.99N/A (N/A)0 .. 20,0000%00:00 (00:00)
484 Horizon Feb 6, 2014 $29.9915% (56%/58%)50,000 .. 100,0000%00:00 (00:00)
485 Delve Deeper Sep 24, 2010 $4.9915% (56%)50,000 .. 100,0000%00:00 (00:00)
486 Story Of the Survivor Feb 17, 2016 $4.99N/A (N/A)50,000 .. 100,0000%00:00 (00:00)
487 Stay Dead Evolution Feb 4, 2015 $5.99N/A (N/A)20,000 .. 50,0000%00:00 (00:00)
488 Pain Train Jan 11, 2017 $0.4914% (55%)50,000 .. 100,0002.26%02:01 (01:49)
489 Adventure World Aug 2, 2016 $4.99N/A (N/A)0 .. 20,0000%00:00 (00:00)
490 VR Journey Dec 15, 2016 $2.99N/A (N/A)20,000 .. 50,0000%00:00 (00:00)
491 RESCUE 2: Everyday Heroes Jun 3, 2015 $19.9913% (54%)20,000 .. 50,00010%01:53 (00:37)
492 Dawn of Andromeda May 4, 2017 $29.9913% (54%/70%)0 .. 20,0000%00:00 (00:00)
493 Meridian: Squad 22 Aug 11, 2016 $14.9913% (54%)0 .. 20,0000%00:00 (00:00)
494 BC Kings Jun 16, 2009 $4.9913% (54%)20,000 .. 50,0000%00:00 (00:00)
495 Urja Jan 9, 2015 $9.9913% (54%)20,000 .. 50,0000%00:00 (00:00)
496 Wickland Feb 6, 2015 $0.9913% (53%)50,000 .. 100,0000.53%00:58 (00:19)
497 Armada 2526 Apr 8, 2011 $14.99N/A (N/A/66%)0 .. 20,0000%00:00 (00:00)
498 MDK2 HD Jul 30, 2012 $14.9913% (53%/73%)0 .. 20,0000%00:00 (00:00)
499 The Stalin Subway Sep 19, 2014 $3.9913% (53%)20,000 .. 50,0000%00:00 (00:00)
500 Tic-Toc-Tower Sep 28, 2015 $2.9913% (53%)0 .. 20,0000%00:00 (00:00)
501 Smugglers 5 Apr 11, 2014 $9.9913% (53%)20,000 .. 50,0000%00:00 (00:00)
502 Crusaders: Thy Kingdom Come Oct 8, 2009 $9.99N/A (N/A)0 .. 20,0000%00:00 (00:00)
503 MinosMaze - The Minotaur's Labyrinth May 1, 2017 $4.99N/A (N/A)0 .. 20,0000%00:00 (00:00)
504 Sovereignty: Crown of Kings Feb 2, 2017 $24.9912% (52%)0 .. 20,0000%00:00 (00:00)
505 Grim Seventh Jan 20, 2017 FreeN/A (N/A)0 .. 20,0000%00:00 (00:00)
506 Aggression: Europe Under Fire Apr 9, 2014 $1.4911% (51%)0 .. 20,0000%00:00 (00:00)
507 Dusty Revenge:Co-Op Edition Feb 17, 2014 $14.9911% (51%)50,000 .. 100,0000.62%01:36 (00:32)
508 Royal Bounty HD Aug 10, 2015 $2.9911% (51%)0 .. 20,0000%00:00 (00:00)
509 Nightside Aug 6, 2015 $4.9911% (51%)20,000 .. 50,0000%00:00 (00:00)
510 Castle Werewolf 3D Feb 7, 2017 $2.9911% (51%)50,000 .. 100,0002.73%04:14 (04:34)
511 Meridian: New World Sep 26, 2014 $6.9911% (51%/43%)50,000 .. 100,0000%00:00 (00:00)
512 Biodrone Battle Jul 16, 2015 $1.9911% (51%)100,000 .. 200,0000%00:00 (00:00)
513 Chronostorm: Siberian Border Apr 2, 2009 $0.62N/A (N/A)0 .. 20,0000%00:00 (00:00)
514 Megamagic: Wizards of the Neon Age Apr 20, 2016 $9.9911% (50%/67%)20,000 .. 50,0000%00:00 (00:00)
515 Scapeland Mar 31, 2016 $3.9911% (50%)0 .. 20,0000%00:00 (00:00)
516 Rubber and Lead Sep 4, 2015 $4.99N/A (N/A)20,000 .. 50,0000%00:00 (00:00)
517 Guncraft Aug 9, 2013 $14.9911% (50%/73%)100,000 .. 200,0000.49%00:01 (00:00)
518 Aegis Oct 6, 2016 $2.99N/A (N/A)0 .. 20,0000%00:00 (00:00)
519 Kidnapped Aug 4, 2015 $2.9910% (49%)100,000 .. 200,0000%00:00 (00:00)
520 Albedo: Eyes from Outer Space Apr 10, 2015 $14.9910% (49%/66%)50,000 .. 100,0000%00:00 (00:00)
521 Marvel: Ultimate Alliance 2 Jul 26, 2016 N/A9% (48%)0 .. 20,0000%00:00 (00:00)
522 Odd||Even Apr 6, 2016 $0.999% (48%)20,000 .. 50,0000%00:00 (00:00)
523 Synonymy Mar 5, 2015 $1.99N/A (N/A)0 .. 20,0000%00:00 (00:00)
524 Blasting Agent: Ultimate Edition Aug 17, 2016 $2.99N/A (N/A)0 .. 20,0000%00:00 (00:00)
525 Hell Nov 13, 2014 $29.99N/A (N/A)0 .. 20,0000%00:00 (00:00)
526 Island Defense Jul 23, 2015 $1.99N/A (N/A)50,000 .. 100,0000%00:00 (00:00)
527 Disposable Heroes Oct 1, 2015 $4.999% (47%)20,000 .. 50,0000%00:00 (00:00)
528 Hero Generations Apr 10, 2015 $5.999% (47%)0 .. 20,0000%00:00 (00:00)
529 Carrier Command: Gaea Mission Sep 28, 2012 $32.998% (46%/60%)200,000 .. 500,0000%00:00 (00:00)
530 No Pineapple Left Behind Feb 18, 2016 $6.99N/A (N/A/59%)0 .. 20,0000%00:00 (00:00)
531 HitBox Jan 30, 2017 Free8% (46%)0 .. 20,0000%00:00 (00:00)
532 The Stalin Subway: Red Veil Oct 24, 2014 $2.998% (46%)20,000 .. 50,0000%00:00 (00:00)
533 Pride of Nations Jun 7, 2011 $19.998% (46%/70%)20,000 .. 50,0000%00:00 (00:00)
534 Magic Quest May 6, 2016 $1.99N/A (N/A)50,000 .. 100,0000%00:00 (00:00)
535 Crossfire: Dungeons May 21, 2015 $3.998% (46%)0 .. 20,0000%00:00 (00:00)
536 World War 2: Time of Wrath Jun 6, 2014 $0.99N/A (N/A)20,000 .. 50,0000%00:00 (00:00)
537 PeriAreion Feb 19, 2015 $5.99N/A (N/A)0 .. 20,0000%00:00 (00:00)
538 Defence to death May 11, 2017 $1.99N/A (N/A)100,000 .. 200,0000.32%09:47 (03:15)
539 Z Steel Soldiers Aug 1, 2014 $12.998% (46%)50,000 .. 100,0000.49%02:58 (00:59)
540 Impire Feb 14, 2013 $19.998% (45%/45%)100,000 .. 200,0000%00:00 (00:00)
541 Skyward Collapse May 23, 2013 $4.998% (45%/64%)100,000 .. 200,0000%00:00 (00:00)
542 The Bluecoats: North vs South Feb 2, 2015 $4.998% (45%)20,000 .. 50,0000%00:00 (00:00)
543 ALONE IN SPACE Feb 27, 2016 $9.998% (45%)0 .. 20,0000%00:00 (00:00)
544 Redemption: Saints And Sinners Nov 18, 2016 $0.998% (45%)50,000 .. 100,0000.38%00:22 (00:07)
545 The Campaign Series: Fall Weiss May 30, 2014 $2.99N/A (N/A)20,000 .. 50,0000%00:00 (00:00)
546 Commander: Conquest of the Americas Jul 30, 2010 $9.997% (44%/68%)50,000 .. 100,0000%00:00 (00:00)
547 Battle Chess: Game of Kings Dec 11, 2015 $29.997% (44%)0 .. 20,0000%00:00 (00:00)
548 The Entente Gold Jun 16, 2014 $1.997% (43%)50,000 .. 100,0002.94%00:31 (00:31)
549 Vendetta - Curse of Raven's Cry Nov 20, 2015 $29.997% (43%)0 .. 20,0000%00:00 (00:00)
550 Dungeons Feb 10, 2011 $9.997% (43%/65%)200,000 .. 500,0000%00:00 (00:00)
551 Rulers of Nations Jul 16, 2014 $19.997% (42%/63%)0 .. 20,0000%00:00 (00:00)
552 Nux Aug 15, 2014 $6.99N/A (N/A)200,000 .. 500,0000.39%04:39 (03:06)
553 Sword of the Stars II: Enhanced Edition Nov 30, 2012 $19.997% (42%/65%)100,000 .. 200,0000%00:00 (00:00)
554 Samudai Feb 9, 2015 $2.99N/A (N/A)20,000 .. 50,0000%00:00 (00:00)
555 Devils & Demons Oct 6, 2015 $9.996% (41%)20,000 .. 50,0000%00:00 (00:00)
556 Hydraulic Empire Jul 31, 2015 $7.99N/A (N/A)0 .. 20,0000%00:00 (00:00)
557 Burstfire Sep 24, 2015 N/A6% (41%)50,000 .. 100,0000%00:00 (00:00)
558 Pain Train 2 Mar 16, 2017 $6.996% (40%)20,000 .. 50,0000%00:00 (00:00)
559 Mechs & Mercs: Black Talons Jan 9, 2015 $9.996% (40%)0 .. 20,0000%00:00 (00:00)
560 Risk Jun 10, 2013 $9.996% (40%)20,000 .. 50,0000%00:00 (00:00)
561 Gratuitous Space Battles 2 Apr 16, 2015 $9.995% (39%)20,000 .. 50,0000%00:00 (00:00)
562 Dark Matter Oct 17, 2013 $9.995% (39%)0 .. 20,0000%00:00 (00:00)
563 Knight Adventure Oct 15, 2015 $0.99N/A (N/A)50,000 .. 100,0000%00:00 (00:00)
564 Strategic War in Europe Mar 21, 2014 $14.995% (39%)20,000 .. 50,0000%00:00 (00:00)
565 Infection: Humanity's Last Gasp May 26, 2016 $9.99N/A (N/A)0 .. 20,0000%00:00 (00:00)
566 Zombie Apocalypse: Escape The Undead City Nov 25, 2013 $0.995% (38%)0 .. 20,0000%00:00 (00:00)
567 The Kings' Crusade Oct 8, 2010 $9.995% (38%/71%)50,000 .. 100,0000%00:00 (00:00)
568 Control Craft 2 Feb 15, 2016 $2.995% (38%)0 .. 20,0000%00:00 (00:00)
569 Dead But Alive! Southern England Oct 2, 2015 $14.995% (38%)0 .. 20,0000%00:00 (00:00)
570 Lost in Paradise Aug 20, 2015 $2.99N/A (N/A)20,000 .. 50,0000%00:00 (00:00)
571 Tiamat X May 29, 2015 $1.99N/A (N/A)50,000 .. 100,0000%00:00 (00:00)
572 Dungeons - The Dark Lord Sep 27, 2011 $19.995% (38%/72%)100,000 .. 200,0000%00:00 (00:00)
573 Wave of Darkness Nov 5, 2015 $29.995% (38%)0 .. 20,0000%00:00 (00:00)
574 Heavy Fire: Shattered Spear Oct 23, 2015 $3.99N/A (N/A)0 .. 20,0000%00:00 (00:00)
575 Stellar Impact Apr 12, 2012 $9.995% (37%/74%)50,000 .. 100,0000.76%05:21 (01:47)
576 Shadows of War Jan 2, 2015 $2.994% (36%)20,000 .. 50,0000%00:00 (00:00)
577 Blue Sheep Mar 31, 2016 $1.99N/A (N/A)0 .. 20,0000%00:00 (00:00)
578 Urban Empire Jan 20, 2017 $29.994% (35%/62%)50,000 .. 100,0000%00:00 (00:00)
579 Sim Junta Aug 18, 2015 $0.494% (35%)0 .. 20,0000%00:00 (00:00)
580 CTU: Counter Terrorism Unit Apr 22, 2016 $4.994% (34%)0 .. 20,0000%00:00 (00:00)
581 Into the Void Dec 4, 2015 $4.994% (34%)20,000 .. 50,0000%00:00 (00:00)
582 Disciples III - Resurrection Oct 11, 2011 $14.994% (34%/63%)100,000 .. 200,0000%00:00 (00:00)
583 Jagged Alliance Flashback Oct 21, 2014 $19.994% (33%)20,000 .. 50,0000%00:00 (00:00)
584 Arma Tactics Oct 1, 2013 $8.994% (33%/47%)200,000 .. 500,0000.21%00:01 (00:00)
585 Ranger of the jungle Jul 16, 2016 $3.99N/A (N/A)0 .. 20,0000%00:00 (00:00)
586 Fallen: A2P Protocol Aug 14, 2015 $9.994% (33%)20,000 .. 50,0000%00:00 (00:00)
587 Kick-Ass 2 Aug 15, 2014 $19.993% (32%)20,000 .. 50,0000%00:00 (00:00)
588 A Game of Thrones - Genesis Sep 28, 2011 $9.993% (31%)100,000 .. 200,0000.97%01:42 (00:34)
589 Zombies on a Plane Mar 25, 2016 $4.993% (31%)20,000 .. 50,0000%00:00 (00:00)
590 Psichodelya Aug 8, 2014 $1.99N/A (N/A)100,000 .. 200,0000.42%04:17 (01:25)
591 Evopollution Apr 23, 2014 $4.993% (31%)0 .. 20,0000%00:00 (00:00)
592 Power of Defense Aug 4, 2010 $9.99N/A (N/A)0 .. 20,0000%00:00 (00:00)
593 Ku: Shroud of the Morrigan Mar 17, 2014 $4.99N/A (N/A)20,000 .. 50,0000%00:00 (00:00)
594 Robotex Nov 19, 2014 $0.993% (30%)100,000 .. 200,0000%00:00 (00:00)
595 Zombie Zoeds May 20, 2015 $0.993% (30%)200,000 .. 500,0000.35%02:14 (01:29)
596 Tank Operations: European Campaign Nov 22, 2013 $19.993% (29%)20,000 .. 50,0000%00:00 (00:00)
597 Ground Pounders Jul 15, 2014 $4.99N/A (N/A)0 .. 20,0000%00:00 (00:00)
598 Defenders of Time Nov 4, 2014 N/AN/A (N/A/55%)0 .. 20,0000%00:00 (00:00)
599 Solar Shifter EX Sep 11, 2015 $4.99N/A (N/A)20,000 .. 50,0000%00:00 (00:00)
600 Gridberd Sep 7, 2015 $6.992% (27%)200,000 .. 500,0000.16%02:21 (00:47)
601 Hard Truck Apocalypse: Arcade / Ex Machina: Arcade Mar 14, 2014 $4.992% (27%)20,000 .. 50,0000%00:00 (00:00)
602 One Star Apr 17, 2017 $2.992% (24%)100,000 .. 200,0003.72%03:26 (03:40)
603 Elite vs. Freedom May 31, 2016 $4.992% (23%)0 .. 20,0000%00:00 (00:00)
604 APOX Jan 20, 2011 $14.992% (23%/48%)20,000 .. 50,0000%00:00 (00:00)
605 The Asskickers-Steam Edition Feb 6, 2015 $9.99N/A (N/A)0 .. 20,0000%00:00 (00:00)
606 Gemini Wars Nov 2, 2012 $14.991% (20%/53%)20,000 .. 50,0000%00:00 (00:00)
607 Lords of the Black Sun Sep 12, 2014 $29.991% (20%)20,000 .. 50,0000%00:00 (00:00)
608 Star Project Aug 4, 2016 $1.991% (19%)100,000 .. 200,0000%00:00 (00:00)
609 Human Extinction Simulator Jan 21, 2015 $19.99N/A (N/A)0 .. 20,0000%00:00 (00:00)
610 Prison Tycoon 3: Lockdown Jan 29, 2008 $9.991% (17%)20,000 .. 50,0000%00:00 (00:00)
611 Tryst Sep 14, 2012 $14.99N/A (N/A/50%)0 .. 20,0000%00:00 (00:00)
612 Citadels Jul 25, 2013 $14.991% (13%/20%)20,000 .. 50,0000%00:00 (00:00)
613 Once Bitten, Twice Dead! Jul 7, 2015 $4.99N/A (N/A)20,000 .. 50,0000%00:00 (00:00)
614 Magnetic By Nature Nov 10, 2014 $9.99N/A (N/A)0 .. 20,0000%00:00 (00:00)
615 Bloodbath Jun 16, 2014 $14.99N/A (N/A)0 .. 20,0000%00:00 (00:00)

Tags over time:

Access restricted.

This feature is only available to users with special access rights. Sorry.

If you want to proceed, you need to register or log in first and then back Steam Spy on Patreon. Look for Indie or Pro pledge.

Don't forget to use the same email as on Steam Spy!

Owners of this game also own:

Access restricted.

This feature is only available to users with special access rights. Sorry.

If you want to proceed, you need to register or log in first and then back Steam Spy on Patreon. Look for Indie or Pro pledge.

Don't forget to use the same email as on Steam Spy!

Playtime distribution:

Access restricted.

This feature is only available to users with special access rights. Sorry.

If you want to proceed, you need to register or log in first and then back Steam Spy on Patreon. Look for Indie or Pro pledge.

Don't forget to use the same email as on Steam Spy!

Playtime (2 weeks):

Access restricted.

This feature is only available to users with special access rights. Sorry.

If you want to proceed, you need to register or log in first and then back Steam Spy on Patreon. Look for Indie or Pro pledge.

Don't forget to use the same email as on Steam Spy!

User reviews:

Login required.

Please register or log in to see this information.